sensor_id;sensor_type;location;lat;lon;timestamp;pressure;altitude;pressure_sealevel;temperature;humidity
31092;BME280;67728;53.122;12.776;2023-08-08T00:00:45;99918.31;;;13.91;74.03
31092;BME280;67728;53.122;12.776;2023-08-08T00:02:17;99912.38;;;13.88;73.93
31092;BME280;67728;53.122;12.776;2023-08-08T00:03:48;99922.03;;;13.86;73.19
31092;BME280;67728;53.122;12.776;2023-08-08T00:05:20;99917.06;;;13.79;73.78
31092;BME280;67728;53.122;12.776;2023-08-08T00:06:51;99920.59;;;13.78;73.55
31092;BME280;67728;53.122;12.776;2023-08-08T00:08:23;99912.06;;;13.75;74.86
31092;BME280;67728;53.122;12.776;2023-08-08T00:09:53;99915.75;;;13.69;73.57
31092;BME280;67728;53.122;12.776;2023-08-08T00:11:24;99917.50;;;13.69;73.60
31092;BME280;67728;53.122;12.776;2023-08-08T00:12:55;99919.22;;;13.70;73.95
31092;BME280;67728;53.122;12.776;2023-08-08T00:14:26;99913.50;;;13.60;74.40
31092;BME280;67728;53.122;12.776;2023-08-08T00:15:56;99912.53;;;13.63;74.18
31092;BME280;67728;53.122;12.776;2023-08-08T00:17:28;99918.03;;;13.57;74.34
31092;BME280;67728;53.122;12.776;2023-08-08T00:19:00;99920.78;;;13.52;74.19
31092;BME280;67728;53.122;12.776;2023-08-08T00:20:31;99919.13;;;13.51;74.95
31092;BME280;67728;53.122;12.776;2023-08-08T00:22:01;99926.00;;;13.52;74.73
31092;BME280;67728;53.122;12.776;2023-08-08T00:23:33;99913.81;;;13.53;74.43
31092;BME280;67728;53.122;12.776;2023-08-08T00:25:03;99925.22;;;13.50;74.68
31092;BME280;67728;53.122;12.776;2023-08-08T00:26:35;99913.16;;;13.48;74.83
31092;BME280;67728;53.122;12.776;2023-08-08T00:28:05;99916.50;;;13.51;73.79
31092;BME280;67728;53.122;12.776;2023-08-08T00:29:37;99924.31;;;13.51;74.31
31092;BME280;67728;53.122;12.776;2023-08-08T00:31:07;99928.44;;;13.57;74.60
31092;BME280;67728;53.122;12.776;2023-08-08T00:32:38;99916.22;;;13.57;73.96
31092;BME280;67728;53.122;12.776;2023-08-08T00:34:10;99923.22;;;13.57;74.85
31092;BME280;67728;53.122;12.776;2023-08-08T00:35:42;99916.34;;;13.54;74.19
31092;BME280;67728;53.122;12.776;2023-08-08T00:37:12;99917.09;;;13.58;73.84
31092;BME280;67728;53.122;12.776;2023-08-08T00:38:43;99924.00;;;13.59;74.48
31092;BME280;67728;53.122;12.776;2023-08-08T00:40:14;99925.56;;;13.63;73.62
31092;BME280;67728;53.122;12.776;2023-08-08T00:41:45;99923.94;;;13.60;73.81
31092;BME280;67728;53.122;12.776;2023-08-08T00:43:15;99921.41;;;13.59;73.80
31092;BME280;67728;53.122;12.776;2023-08-08T00:44:47;99922.38;;;13.56;73.63
31092;BME280;67728;53.122;12.776;2023-08-08T00:46:17;99923.16;;;13.58;73.52
31092;BME280;67728;53.122;12.776;2023-08-08T00:47:51;99922.38;;;13.56;74.02
31092;BME280;67728;53.122;12.776;2023-08-08T00:49:23;99918.06;;;13.55;73.86
31092;BME280;67728;53.122;12.776;2023-08-08T00:50:55;99911.75;;;13.61;74.02
31092;BME280;67728;53.122;12.776;2023-08-08T00:52:25;99905.69;;;13.60;73.08
31092;BME280;67728;53.122;12.776;2023-08-08T00:53:57;99917.16;;;13.56;72.87
31092;BME280;67728;53.122;12.776;2023-08-08T00:55:27;99916.34;;;13.54;73.47
31092;BME280;67728;53.122;12.776;2023-08-08T00:56:59;99921.56;;;13.54;73.47
31092;BME280;67728;53.122;12.776;2023-08-08T00:58:29;99912.00;;;13.55;73.54
31092;BME280;67728;53.122;12.776;2023-08-08T01:00:01;99907.88;;;13.49;73.45
31092;BME280;67728;53.122;12.776;2023-08-08T01:01:31;99915.56;;;13.52;73.58
31092;BME280;67728;53.122;12.776;2023-08-08T01:03:03;99913.91;;;13.51;73.47
31092;BME280;67728;53.122;12.776;2023-08-08T01:04:34;99908.84;;;13.47;73.96
31092;BME280;67728;53.122;12.776;2023-08-08T01:06:12;99905.47;;;13.45;74.23
31092;BME280;67728;53.122;12.776;2023-08-08T01:07:45;99913.38;;;13.43;74.53
31092;BME280;67728;53.122;12.776;2023-08-08T01:09:19;99909.91;;;13.43;74.10
31092;BME280;67728;53.122;12.776;2023-08-08T01:10:51;99906.44;;;13.42;73.81
31092;BME280;67728;53.122;12.776;2023-08-08T01:12:23;99906.31;;;13.45;74.63
31092;BME280;67728;53.122;12.776;2023-08-08T01:13:55;99913.47;;;13.40;73.90
31092;BME280;67728;53.122;12.776;2023-08-08T01:15:27;99916.97;;;13.39;73.97
31092;BME280;67728;53.122;12.776;2023-08-08T01:16:58;99905.59;;;13.42;74.30
31092;BME280;67728;53.122;12.776;2023-08-08T01:18:30;99915.22;;;13.40;73.68
31092;BME280;67728;53.122;12.776;2023-08-08T01:20:03;99904.94;;;13.37;74.14
31092;BME280;67728;53.122;12.776;2023-08-08T01:21:35;99906.78;;;13.33;73.82
31092;BME280;67728;53.122;12.776;2023-08-08T01:23:11;99897.19;;;13.35;74.05
31092;BME280;67728;53.122;12.776;2023-08-08T01:24:45;99906.75;;;13.35;73.71
31092;BME280;67728;53.122;12.776;2023-08-08T01:26:16;99903.19;;;13.37;74.05
31092;BME280;67728;53.122;12.776;2023-08-08T01:27:47;99900.63;;;13.36;74.16
31092;BME280;67728;53.122;12.776;2023-08-08T01:29:17;99892.94;;;13.33;74.68
31092;BME280;67728;53.122;12.776;2023-08-08T01:30:49;99898.09;;;13.34;74.09
31092;BME280;67728;53.122;12.776;2023-08-08T01:32:21;99901.66;;;13.32;74.00
31092;BME280;67728;53.122;12.776;2023-08-08T01:33:51;99892.94;;;13.33;73.16
31092;BME280;67728;53.122;12.776;2023-08-08T01:35:22;99892.03;;;13.34;72.99
31092;BME280;67728;53.122;12.776;2023-08-08T01:36:56;99882.56;;;13.31;73.87
31092;BME280;67728;53.122;12.776;2023-08-08T01:38:29;99902.50;;;13.32;75.24
31092;BME280;67728;53.122;12.776;2023-08-08T01:40:04;99885.38;;;13.27;74.02
31092;BME280;67728;53.122;12.776;2023-08-08T01:41:35;99893.06;;;13.30;74.08
31092;BME280;67728;53.122;12.776;2023-08-08T01:43:09;99891.44;;;13.27;74.16
31092;BME280;67728;53.122;12.776;2023-08-08T01:44:40;99891.56;;;13.24;74.27
31092;BME280;67728;53.122;12.776;2023-08-08T01:46:12;99882.03;;;13.23;74.28
31092;BME280;67728;53.122;12.776;2023-08-08T01:47:43;99886.50;;;13.19;74.80
31092;BME280;67728;53.122;12.776;2023-08-08T01:49:20;99889.72;;;13.26;74.84
31092;BME280;67728;53.122;12.776;2023-08-08T01:50:50;99886.50;;;13.19;74.47
31092;BME280;67728;53.122;12.776;2023-08-08T01:52:22;99885.41;;;13.25;74.48
31092;BME280;67728;53.122;12.776;2023-08-08T01:53:53;99886.38;;;13.23;74.22
31092;BME280;67728;53.122;12.776;2023-08-08T01:55:26;99884.81;;;13.18;74.53
31092;BME280;67728;53.122;12.776;2023-08-08T01:56:56;99879.53;;;13.20;74.65
31092;BME280;67728;53.122;12.776;2023-08-08T01:58:28;99880.63;;;13.14;74.45
31092;BME280;67728;53.122;12.776;2023-08-08T01:59:58;99881.41;;;13.16;74.97
31092;BME280;67728;53.122;12.776;2023-08-08T02:01:30;99869.97;;;13.21;74.50
31092;BME280;67728;53.122;12.776;2023-08-08T02:03:01;99875.31;;;13.17;74.35
31092;BME280;67728;53.122;12.776;2023-08-08T02:04:32;99870.84;;;13.21;74.60
31092;BME280;67728;53.122;12.776;2023-08-08T02:06:03;99875.25;;;13.19;75.61
31092;BME280;67728;53.122;12.776;2023-08-08T02:07:34;99863.34;;;13.13;75.09
31092;BME280;67728;53.122;12.776;2023-08-08T02:09:05;99869.91;;;13.22;76.00
31092;BME280;67728;53.122;12.776;2023-08-08T02:10:37;99864.84;;;13.19;75.68
31092;BME280;67728;53.122;12.776;2023-08-08T02:12:09;99869.09;;;13.22;75.20
31092;BME280;67728;53.122;12.776;2023-08-08T02:13:39;99867.44;;;13.19;74.92
31092;BME280;67728;53.122;12.776;2023-08-08T02:15:11;99864.84;;;13.19;75.18
31092;BME280;67728;53.122;12.776;2023-08-08T02:16:42;99870.09;;;13.17;75.50
31092;BME280;67728;53.122;12.776;2023-08-08T02:18:13;99868.53;;;13.13;75.91
31092;BME280;67728;53.122;12.776;2023-08-08T02:19:44;99870.34;;;13.11;76.40
31092;BME280;67728;53.122;12.776;2023-08-08T02:21:15;99874.72;;;13.11;75.99
31092;BME280;67728;53.122;12.776;2023-08-08T02:22:46;99877.44;;;13.08;76.26
31092;BME280;67728;53.122;12.776;2023-08-08T02:24:17;99862.72;;;13.07;76.36
31092;BME280;67728;53.122;12.776;2023-08-08T02:25:50;99865.13;;;13.11;76.82
31092;BME280;67728;53.122;12.776;2023-08-08T02:27:21;99873.06;;;13.08;75.93
31092;BME280;67728;53.122;12.776;2023-08-08T02:28:53;99868.69;;;13.09;76.29
31092;BME280;67728;53.122;12.776;2023-08-08T02:30:23;99865.09;;;13.13;77.33
31092;BME280;67728;53.122;12.776;2023-08-08T02:31:55;99870.41;;;13.10;77.21
31092;BME280;67728;53.122;12.776;2023-08-08T02:33:25;99869.63;;;13.06;77.46
31092;BME280;67728;53.122;12.776;2023-08-08T02:34:56;99865.25;;;13.08;77.67
31092;BME280;67728;53.122;12.776;2023-08-08T02:36:27;99862.72;;;13.07;76.89
31092;BME280;67728;53.122;12.776;2023-08-08T02:37:58;99863.56;;;13.07;77.03
31092;BME280;67728;53.122;12.776;2023-08-08T02:39:30;99861.69;;;13.11;77.24
31092;BME280;67728;53.122;12.776;2023-08-08T02:41:02;99866.09;;;13.09;77.39
31092;BME280;67728;53.122;12.776;2023-08-08T02:42:33;99865.19;;;13.10;77.35
31092;BME280;67728;53.122;12.776;2023-08-08T02:44:03;99864.34;;;13.09;77.81
31092;BME280;67728;53.122;12.776;2023-08-08T02:45:35;99866.06;;;13.10;78.10
31092;BME280;67728;53.122;12.776;2023-08-08T02:47:05;99870.53;;;13.07;77.56
31092;BME280;67728;53.122;12.776;2023-08-08T02:48:37;99872.31;;;13.05;78.26
31092;BME280;67728;53.122;12.776;2023-08-08T02:50:07;99871.47;;;13.04;78.18
31092;BME280;67728;53.122;12.776;2023-08-08T02:51:39;99867.22;;;13.02;79.09
31092;BME280;67728;53.122;12.776;2023-08-08T02:53:10;99868.13;;;13.01;79.00
31092;BME280;67728;53.122;12.776;2023-08-08T02:54:41;99868.06;;;13.02;78.68
31092;BME280;67728;53.122;12.776;2023-08-08T02:56:13;99874.19;;;13.01;79.23
31092;BME280;67728;53.122;12.776;2023-08-08T02:57:44;99869.88;;;13.00;79.13
31092;BME280;67728;53.122;12.776;2023-08-08T02:59:15;99874.19;;;13.01;79.53
31092;BME280;67728;53.122;12.776;2023-08-08T03:00:46;99875.16;;;12.99;79.64
31092;BME280;67728;53.122;12.776;2023-08-08T03:02:18;99878.50;;;13.02;78.85
31092;BME280;67728;53.122;12.776;2023-08-08T03:03:48;99870.72;;;13.01;79.37
31092;BME280;67728;53.122;12.776;2023-08-08T03:05:19;99881.22;;;12.99;79.44
31092;BME280;67728;53.122;12.776;2023-08-08T03:06:50;99870.84;;;12.98;79.64
31092;BME280;67728;53.122;12.776;2023-08-08T03:08:21;99868.06;;;13.02;80.08
31092;BME280;67728;53.122;12.776;2023-08-08T03:09:52;99867.44;;;12.96;79.83
31092;BME280;67728;53.122;12.776;2023-08-08T03:11:25;99872.72;;;12.94;80.08
31092;BME280;67728;53.122;12.776;2023-08-08T03:12:55;99875.25;;;12.96;80.48
31092;BME280;67728;53.122;12.776;2023-08-08T03:14:27;99880.47;;;12.96;79.57
31092;BME280;67728;53.122;12.776;2023-08-08T03:15:57;99880.25;;;13.02;80.50
31092;BME280;67728;53.122;12.776;2023-08-08T03:17:29;99875.25;;;12.96;80.12
31092;BME280;67728;53.122;12.776;2023-08-08T03:18:59;99886.59;;;12.95;80.26
31092;BME280;67728;53.122;12.776;2023-08-08T03:20:30;99873.44;;;12.98;80.64
31092;BME280;67728;53.122;12.776;2023-08-08T03:22:01;99874.38;;;12.97;80.35
31092;BME280;67728;53.122;12.776;2023-08-08T03:23:32;99879.69;;;12.94;80.36
31092;BME280;67728;53.122;12.776;2023-08-08T03:25:03;99874.38;;;12.97;81.04
31092;BME280;67728;53.122;12.776;2023-08-08T03:26:36;99879.63;;;12.95;80.54
31092;BME280;67728;53.122;12.776;2023-08-08T03:28:06;99873.59;;;12.95;80.76
31092;BME280;67728;53.122;12.776;2023-08-08T03:29:38;99873.63;;;12.93;81.18
31092;BME280;67728;53.122;12.776;2023-08-08T03:31:08;99883.16;;;12.94;80.59
31092;BME280;67728;53.122;12.776;2023-08-08T03:32:40;99876.31;;;12.92;80.71
31092;BME280;67728;53.122;12.776;2023-08-08T03:34:10;99881.50;;;12.92;81.26
31092;BME280;67728;53.122;12.776;2023-08-08T03:35:42;99880.66;;;12.91;81.56
31092;BME280;67728;53.122;12.776;2023-08-08T03:37:13;99873.81;;;12.89;81.82
31092;BME280;67728;53.122;12.776;2023-08-08T03:38:45;99882.59;;;12.86;82.01
31092;BME280;67728;53.122;12.776;2023-08-08T03:40:16;99874.78;;;12.86;81.64
31092;BME280;67728;53.122;12.776;2023-08-08T03:41:49;99874.66;;;12.89;82.17
31092;BME280;67728;53.122;12.776;2023-08-08T03:43:19;99878.16;;;12.88;82.36
31092;BME280;67728;53.122;12.776;2023-08-08T03:44:50;99875.38;;;12.93;82.69
31092;BME280;67728;53.122;12.776;2023-08-08T03:46:21;99866.78;;;12.91;81.93
31092;BME280;67728;53.122;12.776;2023-08-08T03:47:53;99873.06;;;12.85;81.83
31092;BME280;67728;53.122;12.776;2023-08-08T03:49:23;99878.28;;;12.85;82.27
31092;BME280;67728;53.122;12.776;2023-08-08T03:50:55;99878.22;;;12.87;82.55
31092;BME280;67728;53.122;12.776;2023-08-08T03:52:25;99869.50;;;12.88;82.00
31092;BME280;67728;53.122;12.776;2023-08-08T03:53:57;99884.25;;;12.87;82.12
31092;BME280;67728;53.122;12.776;2023-08-08T03:55:27;99877.44;;;12.85;82.27
31092;BME280;67728;53.122;12.776;2023-08-08T03:57:00;99877.50;;;12.83;81.85
31092;BME280;67728;53.122;12.776;2023-08-08T03:58:31;99874.16;;;12.80;82.90
31092;BME280;67728;53.122;12.776;2023-08-08T04:00:03;99880.22;;;12.80;82.20
31092;BME280;67728;53.122;12.776;2023-08-08T04:01:33;99871.50;;;12.81;82.80
31092;BME280;67728;53.122;12.776;2023-08-08T04:03:05;99880.94;;;12.84;82.42
31092;BME280;67728;53.122;12.776;2023-08-08T04:04:35;99882.75;;;12.82;82.98
31092;BME280;67728;53.122;12.776;2023-08-08T04:06:08;99883.59;;;12.82;83.19
31092;BME280;67728;53.122;12.776;2023-08-08T04:07:39;99883.59;;;12.82;82.38
31092;BME280;67728;53.122;12.776;2023-08-08T04:09:10;99874.88;;;12.83;83.10
31092;BME280;67728;53.122;12.776;2023-08-08T04:10:41;99886.75;;;12.90;83.10
31092;BME280;67728;53.122;12.776;2023-08-08T04:12:14;99880.75;;;12.88;82.83
31092;BME280;67728;53.122;12.776;2023-08-08T04:13:44;99876.34;;;12.90;82.53
31092;BME280;67728;53.122;12.776;2023-08-08T04:15:16;99883.19;;;12.93;83.11
31092;BME280;67728;53.122;12.776;2023-08-08T04:16:46;99881.53;;;12.90;82.74
31092;BME280;67728;53.122;12.776;2023-08-08T04:18:17;99884.03;;;12.93;82.79
31092;BME280;67728;53.122;12.776;2023-08-08T04:19:49;99891.97;;;12.90;82.65
31092;BME280;67728;53.122;12.776;2023-08-08T04:21:20;99881.50;;;12.92;83.36
31092;BME280;67728;53.122;12.776;2023-08-08T04:22:53;99877.28;;;12.89;82.94
31092;BME280;67728;53.122;12.776;2023-08-08T04:24:24;99882.34;;;12.92;83.22
31092;BME280;67728;53.122;12.776;2023-08-08T04:25:56;99878.91;;;12.92;83.09
31092;BME280;67728;53.122;12.776;2023-08-08T04:27:27;99877.28;;;12.89;82.83
31092;BME280;67728;53.122;12.776;2023-08-08T04:28:59;99882.41;;;12.91;83.26
31092;BME280;67728;53.122;12.776;2023-08-08T04:30:29;99882.47;;;12.89;83.55
31092;BME280;67728;53.122;12.776;2023-08-08T04:32:01;99871.03;;;12.93;83.43
31092;BME280;67728;53.122;12.776;2023-08-08T04:33:31;99877.13;;;12.92;83.36
31092;BME280;67728;53.122;12.776;2023-08-08T04:35:03;99870.16;;;12.93;82.70
31092;BME280;67728;53.122;12.776;2023-08-08T04:36:33;99884.78;;;12.97;83.82
31092;BME280;67728;53.122;12.776;2023-08-08T04:38:04;99872.66;;;12.96;83.30
31092;BME280;67728;53.122;12.776;2023-08-08T04:39:35;99873.63;;;12.93;83.63
31092;BME280;67728;53.122;12.776;2023-08-08T04:41:06;99870.06;;;12.96;83.38
31092;BME280;67728;53.122;12.776;2023-08-08T04:42:38;99869.09;;;12.98;83.92
31092;BME280;67728;53.122;12.776;2023-08-08T04:44:09;99874.19;;;13.01;83.98
31092;BME280;67728;53.122;12.776;2023-08-08T04:45:40;99867.41;;;12.97;83.42
31092;BME280;67728;53.122;12.776;2023-08-08T04:47:11;99873.44;;;12.98;83.41
31092;BME280;67728;53.122;12.776;2023-08-08T04:48:42;99876.03;;;12.98;83.40
31092;BME280;67728;53.122;12.776;2023-08-08T04:50:13;99871.75;;;12.97;82.60
31092;BME280;67728;53.122;12.776;2023-08-08T04:51:44;99874.19;;;13.01;83.48
31092;BME280;67728;53.122;12.776;2023-08-08T04:53:15;99884.72;;;12.98;83.51
31092;BME280;67728;53.122;12.776;2023-08-08T04:54:46;99886.44;;;12.98;83.62
31092;BME280;67728;53.122;12.776;2023-08-08T04:56:17;99879.56;;;12.97;84.05
31092;BME280;67728;53.122;12.776;2023-08-08T04:57:49;99880.44;;;12.97;84.25
31092;BME280;67728;53.122;12.776;2023-08-08T04:59:20;99876.19;;;12.95;83.22
31092;BME280;67728;53.122;12.776;2023-08-08T05:00:51;99883.06;;;12.96;83.47
31092;BME280;67728;53.122;12.776;2023-08-08T05:02:22;99889.13;;;12.96;83.86
31092;BME280;67728;53.122;12.776;2023-08-08T05:03:53;99875.34;;;12.94;83.60
31092;BME280;67728;53.122;12.776;2023-08-08T05:05:25;99878.94;;;12.90;83.96
31092;BME280;67728;53.122;12.776;2023-08-08T05:06:55;99871.25;;;12.87;84.38
31092;BME280;67728;53.122;12.776;2023-08-08T05:08:27;99882.59;;;12.86;84.44
31092;BME280;67728;53.122;12.776;2023-08-08T05:09:58;99879.03;;;12.89;84.34
31092;BME280;67728;53.122;12.776;2023-08-08T05:11:29;99881.66;;;12.87;84.31
31092;BME280;67728;53.122;12.776;2023-08-08T05:13:01;99877.38;;;12.86;84.68
31092;BME280;67728;53.122;12.776;2023-08-08T05:14:32;99883.47;;;12.85;84.45
31092;BME280;67728;53.122;12.776;2023-08-08T05:16:03;99886.09;;;12.85;85.25
31092;BME280;67728;53.122;12.776;2023-08-08T05:17:34;99873.00;;;12.87;85.08
31092;BME280;67728;53.122;12.776;2023-08-08T05:19:05;99881.63;;;12.89;84.53
31092;BME280;67728;53.122;12.776;2023-08-08T05:20:36;99880.75;;;12.88;84.54
31092;BME280;67728;53.122;12.776;2023-08-08T05:22:07;99881.53;;;12.90;84.85
31092;BME280;67728;53.122;12.776;2023-08-08T05:23:38;99881.50;;;12.92;84.37
31092;BME280;67728;53.122;12.776;2023-08-08T05:25:09;99887.53;;;12.92;84.71
31092;BME280;67728;53.122;12.776;2023-08-08T05:26:40;99886.59;;;12.95;84.51
31092;BME280;67728;53.122;12.776;2023-08-08T05:28:12;99877.81;;;12.97;84.50
31092;BME280;67728;53.122;12.776;2023-08-08T05:29:43;99885.63;;;12.97;84.88
31092;BME280;67728;53.122;12.776;2023-08-08T05:31:14;99890.75;;;12.99;84.42
31092;BME280;67728;53.122;12.776;2023-08-08T05:32:45;99897.69;;;13.00;83.81
31092;BME280;67728;53.122;12.776;2023-08-08T05:34:16;99890.47;;;13.08;83.96
31092;BME280;67728;53.122;12.776;2023-08-08T05:35:47;99886.78;;;13.13;83.46
31092;BME280;67728;53.122;12.776;2023-08-08T05:37:17;99888.94;;;13.24;83.48
31092;BME280;67728;53.122;12.776;2023-08-08T05:38:49;99889.63;;;13.29;83.46
31092;BME280;67728;53.122;12.776;2023-08-08T05:40:19;99888.63;;;13.32;83.72
31092;BME280;67728;53.122;12.776;2023-08-08T05:41:51;99884.16;;;13.35;83.16
31092;BME280;67728;53.122;12.776;2023-08-08T05:43:23;99897.13;;;13.37;83.35
31092;BME280;67728;53.122;12.776;2023-08-08T05:44:54;99881.56;;;13.35;82.91
31092;BME280;67728;53.122;12.776;2023-08-08T05:46:25;99894.59;;;13.35;83.14
31092;BME280;67728;53.122;12.776;2023-08-08T05:47:56;99895.41;;;13.36;82.98
31092;BME280;67728;53.122;12.776;2023-08-08T05:49:27;99892.88;;;13.34;82.96
31092;BME280;67728;53.122;12.776;2023-08-08T05:50:58;99883.19;;;13.38;83.27
31092;BME280;67728;53.122;12.776;2023-08-08T05:52:29;99890.16;;;13.37;82.87
31092;BME280;67728;53.122;12.776;2023-08-08T05:54:01;99892.63;;;13.40;83.11
31092;BME280;67728;53.122;12.776;2023-08-08T05:55:33;99882.22;;;13.40;82.94
31092;BME280;67728;53.122;12.776;2023-08-08T05:57:04;99888.22;;;13.42;83.01
31092;BME280;67728;53.122;12.776;2023-08-08T05:58:36;99887.44;;;13.40;83.25
31092;BME280;67728;53.122;12.776;2023-08-08T06:00:08;99889.19;;;13.40;82.92
31092;BME280;67728;53.122;12.776;2023-08-08T06:01:41;99891.72;;;13.41;83.46
31092;BME280;67728;53.122;12.776;2023-08-08T06:03:11;99889.00;;;13.44;83.06
31092;BME280;67728;53.122;12.776;2023-08-08T06:04:43;99886.47;;;13.43;83.37
31092;BME280;67728;53.122;12.776;2023-08-08T06:06:13;99883.00;;;13.42;82.87
31092;BME280;67728;53.122;12.776;2023-08-08T06:07:45;99882.22;;;13.40;83.01
31092;BME280;67728;53.122;12.776;2023-08-08T06:09:15;99885.59;;;13.42;83.30
31092;BME280;67728;53.122;12.776;2023-08-08T06:10:46;99880.31;;;13.44;83.28
31092;BME280;67728;53.122;12.776;2023-08-08T06:12:17;99885.41;;;13.47;83.18
31092;BME280;67728;53.122;12.776;2023-08-08T06:13:50;99885.28;;;13.50;83.42
31092;BME280;67728;53.122;12.776;2023-08-08T06:15:20;99876.38;;;13.55;83.55
31092;BME280;67728;53.122;12.776;2023-08-08T06:16:52;99875.88;;;13.67;82.69
31092;BME280;67728;53.122;12.776;2023-08-08T06:18:22;99877.91;;;13.81;82.14
31092;BME280;67728;53.122;12.776;2023-08-08T06:19:53;99878.16;;;13.95;81.93
31092;BME280;67728;53.122;12.776;2023-08-08T06:21:26;99876.03;;;14.05;80.44
31092;BME280;67728;53.122;12.776;2023-08-08T06:22:57;99871.44;;;14.10;81.12
31092;BME280;67728;53.122;12.776;2023-08-08T06:24:28;99883.25;;;14.18;81.46
31092;BME280;67728;53.122;12.776;2023-08-08T06:25:59;99883.56;;;14.31;79.96
31092;BME280;67728;53.122;12.776;2023-08-08T06:27:30;99877.97;;;14.40;79.88
31092;BME280;67728;53.122;12.776;2023-08-08T06:29:03;99875.09;;;14.46;79.61
31092;BME280;67728;53.122;12.776;2023-08-08T06:30:33;99881.16;;;14.47;79.71
31092;BME280;67728;53.122;12.776;2023-08-08T06:32:05;99882.47;;;14.36;79.98
31092;BME280;67728;53.122;12.776;2023-08-08T06:33:35;99876.13;;;14.42;79.49
31092;BME280;67728;53.122;12.776;2023-08-08T06:35:07;99884.22;;;14.36;79.24
31092;BME280;67728;53.122;12.776;2023-08-08T06:36:38;99876.63;;;14.31;79.43
31092;BME280;67728;53.122;12.776;2023-08-08T06:38:09;99873.13;;;14.31;79.45
31092;BME280;67728;53.122;12.776;2023-08-08T06:39:40;99872.28;;;14.30;79.95
31092;BME280;67728;53.122;12.776;2023-08-08T06:41:11;99867.91;;;14.31;80.13
31092;BME280;67728;53.122;12.776;2023-08-08T06:42:43;99865.84;;;14.39;80.07
31092;BME280;67728;53.122;12.776;2023-08-08T06:44:15;99863.88;;;14.44;79.90
31092;BME280;67728;53.122;12.776;2023-08-08T06:45:46;99890.47;;;14.52;79.02
31092;BME280;67728;53.122;12.776;2023-08-08T06:47:16;99875.31;;;14.60;78.26
31092;BME280;67728;53.122;12.776;2023-08-08T06:48:48;99878.63;;;14.64;79.54
31092;BME280;67728;53.122;12.776;2023-08-08T06:50:20;99875.88;;;14.85;80.25
31092;BME280;67728;53.122;12.776;2023-08-08T06:51:52;99867.50;;;14.98;77.37
31092;BME280;67728;53.122;12.776;2023-08-08T06:53:22;99880.72;;;15.12;76.69
31092;BME280;67728;53.122;12.776;2023-08-08T06:54:53;99882.00;;;15.22;77.32
31092;BME280;67728;53.122;12.776;2023-08-08T06:56:25;99885.63;;;15.19;76.33
31092;BME280;67728;53.122;12.776;2023-08-08T06:57:57;99875.78;;;15.24;75.86
31092;BME280;67728;53.122;12.776;2023-08-08T06:59:28;99872.88;;;15.30;76.16
31092;BME280;67728;53.122;12.776;2023-08-08T07:01:00;99871.09;;;15.31;77.08
31092;BME280;67728;53.122;12.776;2023-08-08T07:02:30;99872.81;;;15.32;76.08
31092;BME280;67728;53.122;12.776;2023-08-08T07:04:02;99868.13;;;15.38;76.36
31092;BME280;67728;53.122;12.776;2023-08-08T07:05:33;99870.66;;;15.59;76.15
31092;BME280;67728;53.122;12.776;2023-08-08T07:07:05;99876.16;;;15.52;74.98
31092;BME280;67728;53.122;12.776;2023-08-08T07:08:35;99885.25;;;15.63;75.22
31092;BME280;67728;53.122;12.776;2023-08-08T07:10:09;99873.81;;;15.65;74.29
31092;BME280;67728;53.122;12.776;2023-08-08T07:11:39;99875.78;;;15.60;74.16
31092;BME280;67728;53.122;12.776;2023-08-08T07:13:11;99883.88;;;15.73;74.58
31092;BME280;67728;53.122;12.776;2023-08-08T07:14:43;99889.09;;;15.90;73.14
31092;BME280;67728;53.122;12.776;2023-08-08T07:16:14;99887.19;;;15.76;72.58
31092;BME280;67728;53.122;12.776;2023-08-08T07:17:45;99878.81;;;15.70;73.75
31092;BME280;67728;53.122;12.776;2023-08-08T07:19:16;99875.25;;;15.71;73.81
31092;BME280;67728;53.122;12.776;2023-08-08T07:20:47;99877.03;;;15.70;74.54
31092;BME280;67728;53.122;12.776;2023-08-08T07:22:19;99873.94;;;15.79;74.19
31092;BME280;67728;53.122;12.776;2023-08-08T07:23:50;99879.41;;;15.75;72.95
31092;BME280;67728;53.122;12.776;2023-08-08T07:25:22;99875.03;;;15.75;73.96
31092;BME280;67728;53.122;12.776;2023-08-08T07:26:52;99880.50;;;15.88;74.02
31092;BME280;67728;53.122;12.776;2023-08-08T07:28:24;99875.97;;;15.91;72.64
31092;BME280;67728;53.122;12.776;2023-08-08T07:29:56;99878.72;;;15.88;73.24
31092;BME280;67728;53.122;12.776;2023-08-08T07:31:27;99873.81;;;15.82;72.87
31092;BME280;67728;53.122;12.776;2023-08-08T07:32:57;99884.66;;;15.92;72.99
31092;BME280;67728;53.122;12.776;2023-08-08T07:34:29;99873.88;;;15.81;72.57
31092;BME280;67728;53.122;12.776;2023-08-08T07:35:59;99880.44;;;15.89;71.91
31092;BME280;67728;53.122;12.776;2023-08-08T07:37:31;99876.13;;;15.88;72.84
31092;BME280;67728;53.122;12.776;2023-08-08T07:39:02;99882.19;;;15.89;73.15
31092;BME280;67728;53.122;12.776;2023-08-08T07:40:33;99880.97;;;15.96;73.59
31092;BME280;67728;53.122;12.776;2023-08-08T07:42:05;99881.56;;;16.01;73.04
31092;BME280;67728;53.122;12.776;2023-08-08T07:43:35;99885.94;;;16.00;73.46
31092;BME280;67728;53.122;12.776;2023-08-08T07:45:08;99884.28;;;15.99;73.96
31092;BME280;67728;53.122;12.776;2023-08-08T07:46:39;99886.25;;;15.77;72.84
31092;BME280;67728;53.122;12.776;2023-08-08T07:48:10;99884.56;;;15.93;74.24
31092;BME280;67728;53.122;12.776;2023-08-08T07:49:42;99884.78;;;16.06;71.80
31092;BME280;67728;53.122;12.776;2023-08-08T07:51:12;99893.88;;;15.99;71.80
31092;BME280;67728;53.122;12.776;2023-08-08T07:52:44;99889.34;;;16.02;73.02
31092;BME280;67728;53.122;12.776;2023-08-08T07:54:14;99884.19;;;16.01;72.72
31092;BME280;67728;53.122;12.776;2023-08-08T07:55:45;99892.50;;;15.92;71.82
31092;BME280;67728;53.122;12.776;2023-08-08T07:57:16;99893.97;;;15.97;72.03